Time;durP1;ratioP1;P1;durP2;ratioP2;P2;SDS_P1;SDS_P2;PMS_P1;PMS_P2;Temp;Humidity;BMP_temperature;BMP_pressure;BME280_temperature;BME280_humidity;BME280_pressure;Samples;Min_cycle;Max_cycle;Signal;HPM_P1;HPM_P2
2021/08/01 00:02:11;;;;;;;6.70;6.00;;;18.20;99.90;;;;;;5033586;28;20177;-63
2021/08/01 00:04:37;;;;;;;7.60;7.00;;;18.00;99.90;;;;;;5033454;28;20162;-63
2021/08/01 00:07:03;;;;;;;7.03;6.23;;;17.90;99.90;;;;;;5033407;28;20162;-63
2021/08/01 00:09:29;;;;;;;6.40;5.80;;;17.80;99.90;;;;;;5033067;28;20217;-63
2021/08/01 00:11:54;;;;;;;6.63;6.03;;;17.70;99.90;;;;;;5033317;28;20435;-63
2021/08/01 00:14:20;;;;;;;9.20;6.37;;;17.60;99.90;;;;;;5033264;28;20658;-63
2021/08/01 00:16:46;;;;;;;6.10;5.50;;;17.60;99.90;;;;;;5033190;28;20210;-63
2021/08/01 00:19:11;;;;;;;6.67;6.00;;;17.60;99.90;;;;;;5032784;28;20198;-63
2021/08/01 00:21:36;;;;;;;6.30;5.77;;;17.40;99.90;;;;;;5033067;28;20220;-63
2021/08/01 00:24:02;;;;;;;7.10;6.40;;;17.40;99.90;;;;;;5033164;28;20293;-63
2021/08/01 00:26:28;;;;;;;9.73;6.37;;;17.40;99.90;;;;;;5033070;28;20220;-63
2021/08/01 00:28:53;;;;;;;7.00;6.33;;;17.40;99.90;;;;;;5032649;28;20201;-63
2021/08/01 00:31:19;;;;;;;7.03;6.40;;;17.40;99.90;;;;;;5033034;28;20197;-63
2021/08/01 00:33:44;;;;;;;6.57;5.80;;;17.40;99.90;;;;;;5032915;28;20212;-63
2021/08/01 00:36:10;;;;;;;6.80;6.30;;;17.40;99.90;;;;;;5030973;28;20262;-63
2021/08/01 00:38:35;;;;;;;5.70;5.30;;;17.50;99.90;;;;;;5012684;28;20703;-63
2021/08/01 00:41:02;;;;;;;8.70;6.50;;;17.50;99.90;;;;;;5013115;28;20167;-63
2021/08/01 00:43:27;;;;;;;8.40;6.87;;;17.50;99.90;;;;;;5013053;28;20178;-63
2021/08/01 00:45:53;;;;;;;7.07;6.47;;;17.40;99.90;;;;;;5012985;28;20422;-63
2021/08/01 00:48:23;;;;;;;6.40;5.87;;;17.50;99.90;;;;;;5012726;28;20191;-63
2021/08/01 00:50:49;;;;;;;6.97;6.23;;;17.50;99.90;;;;;;5012799;28;20417;-63
2021/08/01 00:53:15;;;;;;;7.67;6.60;;;17.50;99.90;;;;;;5012893;28;20418;-63
2021/08/01 00:55:40;;;;;;;7.63;6.80;;;17.40;99.90;;;;;;5012970;28;20429;-62
2021/08/01 00:58:06;;;;;;;7.07;6.47;;;17.30;99.90;;;;;;5012598;28;20677;-63
2021/08/01 01:03:29;;;;;;;8.00;7.27;;;17.30;99.90;;;;;;5011835;28;20174;-62
2021/08/01 01:06:08;;;;;;;7.87;7.00;;;17.40;99.90;;;;;;5012623;28;20425;-63
2021/08/01 01:08:55;;;;;;;7.77;6.63;;;17.40;99.90;;;;;;5011960;28;20473;-63
2021/08/01 01:11:26;;;;;;;7.30;6.53;;;17.40;99.90;;;;;;5012679;28;20933;-63
2021/08/01 01:13:54;;;;;;;7.07;6.47;;;17.40;99.90;;;;;;5012534;28;20422;-63
2021/08/01 01:16:21;;;;;;;8.67;6.87;;;17.40;99.90;;;;;;5012533;28;20422;-63
2021/08/01 01:18:54;;;;;;;6.40;5.90;;;17.40;99.90;;;;;;5012087;28;20540;-63
2021/08/01 01:21:35;;;;;;;8.90;6.73;;;17.50;99.90;;;;;;5012511;28;20501;-62
2021/08/01 01:24:08;;;;;;;8.10;5.87;;;17.50;99.90;;;;;;5012599;28;20416;-62
2021/08/01 01:26:41;;;;;;;7.83;7.00;;;17.50;99.90;;;;;;5012421;28;20420;-62
2021/08/01 01:29:06;;;;;;;7.00;6.30;;;17.50;99.90;;;;;;5012138;28;20446;-63
2021/08/01 01:31:47;;;;;;;7.80;7.10;;;17.40;99.90;;;;;;5012474;28;20788;-62
2021/08/01 01:34:25;;;;;;;7.27;6.57;;;17.40;99.90;;;;;;5012342;28;20545;-62
2021/08/01 01:36:53;;;;;;;5.97;5.47;;;17.40;99.90;;;;;;5019466;28;20421;-63
2021/08/01 01:39:20;;;;;;;6.27;5.77;;;17.50;99.90;;;;;;5031633;28;20441;-63
2021/08/01 01:41:47;;;;;;;9.10;6.90;;;17.50;99.90;;;;;;5031753;28;20428;-63
2021/08/01 01:44:13;;;;;;;6.70;6.20;;;17.40;99.90;;;;;;5032017;28;20504;-63
2021/08/01 01:46:40;;;;;;;6.87;6.27;;;17.40;99.90;;;;;;5031888;28;20413;-63
2021/08/01 01:49:08;;;;;;;6.97;6.33;;;17.40;99.90;;;;;;5031391;28;20452;-63
2021/08/01 01:51:35;;;;;;;7.00;6.40;;;17.40;99.90;;;;;;5031869;28;20521;-63
2021/08/01 01:54:01;;;;;;;7.20;6.70;;;17.50;99.90;;;;;;5031828;28;20455;-63
2021/08/01 01:56:29;;;;;;;7.00;6.50;;;17.60;99.90;;;;;;5031813;28;20917;-63
2021/08/01 01:58:55;;;;;;;7.77;6.30;;;17.50;99.90;;;;;;5031281;28;20280;-63
2021/08/01 02:01:20;;;;;;;6.23;5.73;;;17.40;99.90;;;;;;5031779;28;20459;-63
2021/08/01 02:03:46;;;;;;;8.80;7.70;;;17.30;99.90;;;;;;5031667;28;21015;-63
2021/08/01 02:06:15;;;;;;;8.00;7.37;;;17.30;99.90;;;;;;5031742;28;20170;-63
2021/08/01 02:09:01;;;;;;;8.40;7.60;;;17.30;99.90;;;;;;5031225;28;20683;-63
2021/08/01 02:11:33;;;;;;;7.40;6.80;;;17.30;99.90;;;;;;5031742;28;20918;-62
2021/08/01 02:14:03;;;;;;;8.57;6.80;;;17.10;99.90;;;;;;5031539;28;20464;-63
2021/08/01 02:16:33;;;;;;;13.00;7.00;;;17.00;99.90;;;;;;5031635;28;20769;-63
2021/08/01 02:19:04;;;;;;;7.97;7.27;;;16.90;99.90;;;;;;5029942;28;20472;-63
2021/08/01 02:21:30;;;;;;;8.33;7.10;;;16.80;99.90;;;;;;5034230;28;20415;-63
2021/08/01 02:23:58;;;;;;;19.30;8.87;;;16.70;99.90;;;;;;5035381;28;20420;-63
2021/08/01 02:26:24;;;;;;;9.57;7.93;;;16.60;99.90;;;;;;5035272;28;20434;-63
2021/08/01 02:28:52;;;;;;;8.70;7.47;;;16.50;99.90;;;;;;5034791;28;20454;-63
2021/08/01 02:31:18;;;;;;;11.27;7.27;;;16.50;99.90;;;;;;5035216;28;20424;-63
2021/08/01 02:33:45;;;;;;;7.93;7.13;;;16.50;99.90;;;;;;5035158;28;20429;-63
2021/08/01 02:36:11;;;;;;;11.00;8.60;;;16.50;99.90;;;;;;5033240;28;20471;-62
2021/08/01 02:38:38;;;;;;;7.97;7.17;;;16.60;99.90;;;;;;5014936;28;20547;-63
2021/08/01 02:41:26;;;;;;;7.87;7.17;;;16.50;99.90;;;;;;5015291;28;20424;-63
2021/08/01 02:43:53;;;;;;;8.87;8.17;;;16.60;99.90;;;;;;5015210;28;20923;-63
2021/08/01 02:46:25;;;;;;;7.97;6.93;;;16.50;99.90;;;;;;5015162;28;20414;-63
2021/08/01 02:48:53;;;;;;;7.50;6.80;;;16.60;99.90;;;;;;5014835;28;20448;-63
2021/08/01 02:51:19;;;;;;;10.60;6.60;;;16.60;99.90;;;;;;5015237;28;20429;-63
2021/08/01 02:53:49;;;;;;;9.33;7.63;;;16.70;99.90;;;;;;5014971;28;20440;-62
2021/08/01 02:56:19;;;;;;;9.70;8.03;;;16.60;99.90;;;;;;5015056;28;20422;-62
2021/08/01 02:58:48;;;;;;;10.40;7.60;;;16.60;99.90;;;;;;5014494;28;20500;-61
2021/08/01 03:01:15;;;;;;;7.70;7.17;;;16.60;99.90;;;;;;5014974;28;20417;-63
2021/08/01 03:03:41;;;;;;;8.50;6.70;;;16.60;99.90;;;;;;5013609;28;20484;-63
2021/08/01 03:06:08;;;;;;;7.20;6.60;;;16.50;99.90;;;;;;5014764;28;20429;-63
2021/08/01 03:08:34;;;;;;;8.57;7.10;;;16.60;99.90;;;;;;5014354;28;20501;-63
2021/08/01 03:10:59;;;;;;;8.17;7.47;;;16.70;99.90;;;;;;5014768;28;20457;-63
2021/08/01 03:13:25;;;;;;;9.53;7.40;;;16.70;99.90;;;;;;5013392;28;20178;-63
2021/08/01 03:15:52;;;;;;;10.10;7.57;;;16.70;99.90;;;;;;5014710;28;20229;-63
2021/08/01 03:18:17;;;;;;;9.17;8.37;;;16.60;99.90;;;;;;5014301;28;20217;-63
2021/08/01 03:20:43;;;;;;;8.07;7.47;;;16.60;99.90;;;;;;5014287;28;20512;-63
2021/08/01 03:23:09;;;;;;;7.97;7.23;;;16.50;99.90;;;;;;5014564;28;20179;-63
2021/08/01 03:25:34;;;;;;;8.13;7.53;;;16.40;99.90;;;;;;5014517;28;20179;-63
2021/08/01 03:28:02;;;;;;;8.93;8.13;;;16.50;99.90;;;;;;5014277;28;20199;-63
2021/08/01 03:30:28;;;;;;;7.80;7.07;;;16.50;99.90;;;;;;5014134;28;20206;-63
2021/08/01 03:32:54;;;;;;;9.30;8.50;;;16.50;99.90;;;;;;5014338;28;20793;-62
2021/08/01 03:35:20;;;;;;;8.03;7.40;;;16.50;99.90;;;;;;5014195;28;20422;-63
2021/08/01 03:37:46;;;;;;;8.07;7.27;;;16.50;99.90;;;;;;5029094;28;20198;-63
2021/08/01 03:40:13;;;;;;;7.93;7.33;;;16.40;99.90;;;;;;5033703;28;20432;-63
2021/08/01 03:42:39;;;;;;;10.47;7.70;;;16.40;99.90;;;;;;5033900;28;20170;-63
2021/08/01 03:45:07;;;;;;;8.83;8.03;;;16.30;99.90;;;;;;5033906;28;20429;-63
2021/08/01 03:47:32;;;;;;;7.93;7.23;;;16.30;99.90;;;;;;5033876;28;20546;-63
2021/08/01 03:49:57;;;;;;;9.60;7.53;;;16.30;99.90;;;;;;5033317;28;20536;-63
2021/08/01 03:52:23;;;;;;;8.57;7.70;;;16.30;99.90;;;;;;5033841;28;20190;-62
2021/08/01 03:54:50;;;;;;;8.10;7.30;;;16.20;99.90;;;;;;5033773;28;20530;-63
2021/08/01 03:57:16;;;;;;;8.27;7.67;;;16.10;99.90;;;;;;5033585;28;20202;-63
2021/08/01 03:59:41;;;;;;;8.70;7.77;;;16.00;99.90;;;;;;5033167;28;20433;-63
2021/08/01 04:02:07;;;;;;;9.27;8.47;;;16.00;99.90;;;;;;5033596;28;20255;-63
2021/08/01 04:04:33;;;;;;;8.50;7.60;;;15.90;99.90;;;;;;5033397;28;20166;-63
2021/08/01 04:06:59;;;;;;;9.10;7.77;;;15.80;99.90;;;;;;5032446;28;20166;-63
2021/08/01 04:09:24;;;;;;;8.00;7.30;;;15.80;99.90;;;;;;5041455;23;20477;-59
2021/08/01 04:11:50;;;;;;;9.13;8.20;;;15.70;99.90;;;;;;5013404;28;20178;-59
2021/08/01 04:14:15;;;;;;;8.83;8.03;;;15.70;99.90;;;;;;5012182;28;20174;-62
2021/08/01 04:16:41;;;;;;;9.07;8.30;;;15.70;99.90;;;;;;5013453;28;20170;-59
2021/08/01 04:19:11;;;;;;;9.80;7.90;;;15.70;99.90;;;;;;5013023;28;20246;-59
2021/08/01 04:21:37;;;;;;;9.47;8.47;;;15.70;99.90;;;;;;5013481;28;20175;-59
2021/08/01 04:24:03;;;;;;;10.80;10.00;;;15.70;99.90;;;;;;5013366;28;20794;-59
2021/08/01 04:26:29;;;;;;;11.07;8.50;;;15.60;99.90;;;;;;5013186;28;20418;-59
2021/08/01 04:28:55;;;;;;;10.20;9.20;;;15.60;99.90;;;;;;5012831;28;20438;-59
2021/08/01 04:31:20;;;;;;;8.70;7.90;;;15.50;99.90;;;;;;5013175;28;20706;-59
2021/08/01 04:33:46;;;;;;;13.77;9.80;;;15.50;99.90;;;;;;5013265;28;20181;-57
2021/08/01 04:36:11;;;;;;;10.50;9.47;;;15.40;99.90;;;;;;5013115;28;20258;-59
2021/08/01 04:38:37;;;;;;;11.97;10.90;;;15.40;99.90;;;;;;5012645;28;20211;-59
2021/08/01 04:41:02;;;;;;;11.47;10.37;;;15.40;99.90;;;;;;5013073;28;20171;-59
2021/08/01 04:43:28;;;;;;;11.97;10.87;;;15.40;99.90;;;;;;5012361;28;20528;-59
2021/08/01 04:45:53;;;;;;;10.07;9.10;;;15.50;99.90;;;;;;5012946;28;20687;-59
2021/08/01 04:48:19;;;;;;;9.00;7.93;;;15.50;99.90;;;;;;5012654;28;20198;-61
2021/08/01 04:50:44;;;;;;;9.47;8.57;;;15.50;99.90;;;;;;5012856;28;20589;-61
2021/08/01 04:53:10;;;;;;;10.17;9.00;;;15.40;99.90;;;;;;5012862;28;20258;-61
2021/08/01 04:55:35;;;;;;;11.50;10.50;;;15.40;99.90;;;;;;5012810;28;20175;-62
2021/08/01 04:58:04;;;;;;;11.93;10.73;;;15.40;99.90;;;;;;5012490;28;20687;-61
2021/08/01 05:00:30;;;;;;;9.90;8.90;;;15.50;99.90;;;;;;5012506;28;20542;-59
2021/08/01 05:03:01;;;;;;;9.03;8.23;;;15.60;99.90;;;;;;5012457;28;20421;-62
2021/08/01 05:05:27;;;;;;;9.07;8.27;;;15.70;99.90;;;;;;5012726;28;20202;-62
2021/08/01 05:07:53;;;;;;;9.10;8.30;;;15.70;99.90;;;;;;5012651;28;20422;-62
2021/08/01 05:10:19;;;;;;;9.00;8.20;;;15.70;99.90;;;;;;5012167;28;20446;-62
2021/08/01 05:12:44;;;;;;;10.03;9.07;;;15.80;99.90;;;;;;5012507;28;20425;-61
2021/08/01 05:15:11;;;;;;;10.63;9.63;;;15.70;99.90;;;;;;5012674;28;20637;-62
2021/08/01 05:17:36;;;;;;;9.90;8.90;;;15.80;99.90;;;;;;5012592;28;20194;-62
2021/08/01 05:20:02;;;;;;;8.13;7.43;;;15.80;99.90;;;;;;5012046;28;20436;-61
2021/08/01 05:22:28;;;;;;;9.00;8.20;;;15.80;99.90;;;;;;5012456;28;20257;-59
2021/08/01 05:24:53;;;;;;;9.60;8.63;;;15.80;99.90;;;;;;5012338;28;20500;-59
2021/08/01 05:27:19;;;;;;;8.90;8.00;;;15.80;99.90;;;;;;5012267;28;20171;-59
2021/08/01 05:29:44;;;;;;;10.90;8.47;;;15.90;99.90;;;;;;5011994;28;20221;-59
2021/08/01 05:32:10;;;;;;;8.53;7.07;;;15.90;99.90;;;;;;5012350;28;20629;-59
2021/08/01 05:34:35;;;;;;;8.03;7.20;;;15.90;99.90;;;;;;5012333;28;20178;-59
2021/08/01 05:37:01;;;;;;;8.90;8.30;;;16.00;99.90;;;;;;5012134;28;20202;-59
2021/08/01 05:39:27;;;;;;;8.33;7.63;;;16.00;99.90;;;;;;5011869;28;20195;-59
2021/08/01 05:41:52;;;;;;;9.37;8.57;;;16.10;99.90;;;;;;5012033;28;20171;-59
2021/08/01 05:44:18;;;;;;;8.63;7.90;;;16.30;99.90;;;;;;5012172;28;20220;-58
2021/08/01 05:46:43;;;;;;;7.73;7.13;;;16.30;99.90;;;;;;5012133;28;20182;-59
2021/08/01 05:49:10;;;;;;;9.40;8.00;;;16.40;99.90;;;;;;5011731;28;20203;-59
2021/08/01 05:51:38;;;;;;;7.93;7.10;;;16.50;99.90;;;;;;5012127;28;20551;-59
2021/08/01 05:54:03;;;;;;;8.17;7.40;;;16.40;99.90;;;;;;5012196;28;20429;-62
2021/08/01 05:56:29;;;;;;;8.20;7.50;;;16.40;99.90;;;;;;5014647;28;20912;-62
2021/08/01 05:58:54;;;;;;;9.80;9.10;;;16.50;99.90;;;;;;5015806;28;20238;-62
2021/08/01 06:01:20;;;;;;;10.23;9.37;;;16.40;99.90;;;;;;5016008;28;20174;-62
2021/08/01 06:03:47;;;;;;;9.40;8.63;;;16.30;99.90;;;;;;5016013;28;20170;-61
2021/08/01 06:06:15;;;;;;;7.73;7.03;;;16.30;99.90;;;;;;5016284;28;20159;-62
2021/08/01 06:08:43;;;;;;;8.00;7.40;;;16.40;99.90;;;;;;5015275;28;20878;-59
2021/08/01 06:11:09;;;;;;;8.33;7.60;;;16.40;99.90;;;;;;5015649;28;20436;-59
2021/08/01 06:13:35;;;;;;;9.10;7.93;;;16.40;99.90;;;;;;5015766;28;20501;-59
2021/08/01 06:16:01;;;;;;;8.20;7.40;;;16.40;99.90;;;;;;5015727;28;20500;-59
2021/08/01 06:18:27;;;;;;;8.77;8.00;;;16.30;99.90;;;;;;5015215;28;20927;-59
2021/08/01 06:21:06;;;;;;;11.50;8.90;;;16.20;99.90;;;;;;5016060;28;20420;-59
2021/08/01 06:23:33;;;;;;;11.13;7.73;;;16.10;99.90;;;;;;5015574;28;20159;-59
2021/08/01 06:25:59;;;;;;;12.00;10.63;;;16.10;99.90;;;;;;5015485;28;20456;-59
2021/08/01 06:28:24;;;;;;;9.97;9.07;;;16.20;99.90;;;;;;5015448;28;20469;-59
2021/08/01 06:30:50;;;;;;;9.87;8.93;;;16.20;99.90;;;;;;5015441;28;20182;-59
2021/08/01 06:33:15;;;;;;;9.80;9.00;;;16.30;99.90;;;;;;5015435;28;20245;-59
2021/08/01 06:35:41;;;;;;;8.77;7.97;;;16.40;99.90;;;;;;5015209;28;20262;-61
2021/08/01 06:38:06;;;;;;;8.37;7.77;;;16.50;99.90;;;;;;5014985;28;20230;-59
2021/08/01 06:40:32;;;;;;;8.10;7.40;;;16.70;99.90;;;;;;5015236;28;20175;-59
2021/08/01 06:42:57;;;;;;;8.27;7.57;;;16.80;99.90;;;;;;5015222;28;20171;-59
2021/08/01 06:45:23;;;;;;;8.30;7.53;;;16.80;99.90;;;;;;5015225;28;20163;-59
2021/08/01 06:47:48;;;;;;;7.10;6.50;;;16.90;99.90;;;;;;5015231;28;20206;-59
2021/08/01 06:50:14;;;;;;;7.13;6.43;;;17.00;99.90;;;;;;5014780;28;20672;-59
2021/08/01 06:52:39;;;;;;;8.53;7.83;;;17.00;99.90;;;;;;5015042;28;20174;-61
2021/08/01 06:55:06;;;;;;;7.40;6.80;;;17.10;99.90;;;;;;5015055;28;20632;-60
2021/08/01 06:57:31;;;;;;;7.00;6.40;;;17.30;99.90;;;;;;5014964;28;20199;-61
2021/08/01 06:59:57;;;;;;;6.43;5.83;;;17.30;99.90;;;;;;5014719;28;20981;-61
2021/08/01 07:02:22;;;;;;;8.57;7.87;;;17.60;99.90;;;;;;5015080;28;20179;-61
2021/08/01 07:04:48;;;;;;;7.27;6.67;;;17.90;99.90;;;;;;5015294;28;20243;-60
2021/08/01 07:07:13;;;;;;;6.27;5.83;;;18.10;99.90;;;;;;5025925;28;20170;-60
2021/08/01 07:09:40;;;;;;;7.40;6.40;;;18.30;99.90;;;;;;5013662;28;20210;-59
2021/08/01 07:12:07;;;;;;;6.70;6.10;;;18.50;99.90;;;;;;5016499;28;20263;-59
2021/08/01 07:14:33;;;;;;;9.83;7.17;;;18.60;99.90;;;;;;5013712;28;20432;-61
2021/08/01 07:17:00;;;;;;;7.30;6.60;;;18.60;99.90;;;;;;5013755;28;20517;-62
2021/08/01 07:19:26;;;;;;;7.23;6.73;;;18.60;99.90;;;;;;5024764;28;20500;-60
2021/08/01 07:21:51;;;;;;;7.60;7.00;;;18.50;99.90;;;;;;5034167;28;20447;-59
2021/08/01 07:24:17;;;;;;;6.77;6.17;;;18.40;99.90;;;;;;5034208;28;20245;-60
2021/08/01 07:26:42;;;;;;;8.57;5.97;;;18.40;99.90;;;;;;5034493;28;20660;-60
2021/08/01 07:29:08;;;;;;;7.50;6.90;;;18.30;99.90;;;;;;5033826;28;20185;-59
2021/08/01 07:31:33;;;;;;;6.97;6.33;;;18.20;99.90;;;;;;5032911;28;20186;-59
2021/08/01 07:34:00;;;;;;;6.30;5.70;;;18.10;99.90;;;;;;5034049;28;20174;-59
2021/08/01 07:36:27;;;;;;;6.87;6.37;;;18.10;99.90;;;;;;5029894;28;20167;-59
2021/08/01 07:38:52;;;;;;;8.10;6.10;;;18.00;99.90;;;;;;5013492;28;20504;-59
2021/08/01 07:41:18;;;;;;;7.13;6.53;;;18.00;99.90;;;;;;5014033;28;20442;-60
2021/08/01 07:43:43;;;;;;;6.07;5.60;;;18.00;99.90;;;;;;5014155;28;20586;-59
2021/08/01 07:46:09;;;;;;;7.67;6.83;;;18.10;99.90;;;;;;5014117;28;20645;-59
2021/08/01 07:48:34;;;;;;;8.33;5.80;;;18.10;99.90;;;;;;5013678;28;20244;-60
2021/08/01 07:51:00;;;;;;;6.63;6.10;;;18.10;99.90;;;;;;5013943;28;20181;-61
2021/08/01 07:53:27;;;;;;;7.10;6.60;;;18.10;99.90;;;;;;5013967;28;20651;-60
2021/08/01 07:55:52;;;;;;;7.37;6.77;;;18.10;99.90;;;;;;5013979;28;20414;-60
2021/08/01 07:58:18;;;;;;;6.73;6.00;;;18.20;99.90;;;;;;5013703;28;20472;-61
2021/08/01 08:00:43;;;;;;;8.30;7.17;;;18.30;99.90;;;;;;5024087;28;20179;-60
2021/08/01 08:03:09;;;;;;;7.30;6.53;;;18.20;99.90;;;;;;5033565;28;20221;-61
2021/08/01 08:05:34;;;;;;;9.20;7.97;;;18.20;99.90;;;;;;5033486;28;20600;-60
2021/08/01 08:08:00;;;;;;;7.17;6.47;;;18.30;99.90;;;;;;5033166;28;20178;-60
2021/08/01 08:10:26;;;;;;;7.07;6.57;;;18.40;99.90;;;;;;5031861;28;20189;-60
2021/08/01 08:12:51;;;;;;;6.90;6.33;;;18.40;99.90;;;;;;5033400;28;20210;-61
2021/08/01 08:15:17;;;;;;;6.20;5.70;;;18.40;99.90;;;;;;5033391;28;20178;-59
2021/08/01 08:17:42;;;;;;;6.83;6.23;;;18.40;99.90;;;;;;5032557;28;20204;-59
2021/08/01 08:20:09;;;;;;;8.33;5.93;;;18.40;99.90;;;;;;5032591;28;20197;-60
2021/08/01 08:22:34;;;;;;;7.27;5.90;;;18.30;99.90;;;;;;5033045;28;20170;-59
2021/08/01 08:25:00;;;;;;;5.80;5.40;;;18.30;99.90;;;;;;5021272;28;20449;-60
2021/08/01 08:27:26;;;;;;;6.50;5.50;;;18.10;99.90;;;;;;5008429;28;20182;-60
2021/08/01 08:29:51;;;;;;;6.30;5.80;;;18.20;99.90;;;;;;5019756;28;20202;-63
2021/08/01 08:32:17;;;;;;;6.90;6.40;;;18.20;99.90;;;;;;5016998;28;20187;-63
2021/08/01 08:34:43;;;;;;;8.00;7.30;;;18.30;99.90;;;;;;5010278;28;20680;-63
2021/08/01 08:37:09;;;;;;;7.00;6.43;;;18.40;99.90;;;;;;5010143;28;20316;-63
2021/08/01 08:39:34;;;;;;;7.33;6.63;;;18.60;99.90;;;;;;5017512;28;20202;-64
2021/08/01 08:42:00;;;;;;;6.37;5.77;;;18.70;99.90;;;;;;5029449;28;20531;-64
2021/08/01 08:44:27;;;;;;;6.43;5.93;;;18.80;99.90;;;;;;5017130;28;20182;-64
2021/08/01 08:46:54;;;;;;;6.10;5.70;;;18.90;99.90;;;;;;5018977;28;20171;-64
2021/08/01 08:49:21;;;;;;;6.80;6.10;;;18.80;99.90;;;;;;5011803;28;20776;-64
2021/08/01 08:51:48;;;;;;;6.00;5.40;;;18.90;99.90;;;;;;5012610;28;20442;-64
2021/08/01 08:54:16;;;;;;;7.30;6.60;;;18.60;99.90;;;;;;5012670;28;20438;-64
2021/08/01 08:56:43;;;;;;;7.40;6.80;;;18.50;99.90;;;;;;5012946;28;20420;-63
2021/08/01 08:59:10;;;;;;;8.80;6.90;;;18.60;99.90;;;;;;5012299;28;20465;-63
2021/08/01 09:01:40;;;;;;;7.33;6.63;;;18.70;99.90;;;;;;5012764;28;20840;-63
2021/08/01 09:04:06;;;;;;;7.47;6.87;;;18.90;99.90;;;;;;5012551;28;20421;-63
2021/08/01 09:06:31;;;;;;;5.73;5.17;;;19.00;99.90;;;;;;5012576;28;20414;-63
2021/08/01 09:08:57;;;;;;;5.40;5.00;;;19.10;99.90;;;;;;5012002;28;20211;-63
2021/08/01 09:11:23;;;;;;;9.93;5.00;;;19.40;99.90;;;;;;5012693;28;20675;-63
2021/08/01 09:13:56;;;;;;;6.43;5.77;;;19.10;99.90;;;;;;5012514;28;20170;-63
2021/08/01 09:16:39;;;;;;;5.83;5.30;;;18.90;99.90;;;;;;5012426;28;20422;-63
2021/08/01 09:19:28;;;;;;;5.77;4.83;;;18.80;99.90;;;;;;5012299;28;20488;-63
2021/08/01 09:22:08;;;;;;;6.43;5.83;;;18.60;99.90;;;;;;5012458;28;20465;-63
2021/08/01 09:24:34;;;;;;;5.40;5.00;;;18.40;99.90;;;;;;5012434;28;20448;-63
2021/08/01 09:27:02;;;;;;;5.97;5.47;;;18.20;99.90;;;;;;5012250;28;20930;-63
2021/08/01 09:29:28;;;;;;;5.80;5.30;;;18.20;99.90;;;;;;5011879;28;20183;-63
2021/08/01 09:32:01;;;;;;;6.40;5.93;;;18.30;99.90;;;;;;5012476;28;20488;-63
2021/08/01 09:34:28;;;;;;;6.23;5.73;;;18.30;99.90;;;;;;5012223;28;20179;-63
2021/08/01 09:37:05;;;;;;;6.60;5.03;;;18.50;99.90;;;;;;5012261;28;20434;-63
2021/08/01 09:39:41;;;;;;;7.50;5.40;;;18.40;99.90;;;;;;5011736;28;20535;-63
2021/08/01 09:42:08;;;;;;;6.27;4.97;;;18.40;99.90;;;;;;5006757;28;20455;-62
2021/08/01 09:44:40;;;;;;;6.10;5.50;;;18.50;99.90;;;;;;5009582;28;20495;-63
2021/08/01 09:47:06;;;;;;;5.77;5.37;;;18.50;99.90;;;;;;5012195;28;20447;-65
2021/08/01 09:49:32;;;;;;;6.63;6.03;;;18.50;99.90;;;;;;5011748;28;20434;-66
2021/08/01 09:52:03;;;;;;;6.03;5.53;;;18.60;99.90;;;;;;5012030;28;20433;-63
2021/08/01 09:54:45;;;;;;;7.00;6.40;;;18.70;99.90;;;;;;5012125;28;20472;-64
2021/08/01 09:57:19;;;;;;;5.80;5.40;;;18.50;99.90;;;;;;5011939;28;20484;-63
2021/08/01 09:59:47;;;;;;;8.93;5.30;;;18.30;99.90;;;;;;5011717;28;20470;-64
2021/08/01 10:02:13;;;;;;;5.60;5.10;;;18.10;99.90;;;;;;5011979;28;20418;-64
2021/08/01 10:04:40;;;;;;;6.53;5.93;;;18.10;99.90;;;;;;5011852;28;20566;-64
2021/08/01 10:07:26;;;;;;;4.57;4.20;;;18.20;99.90;;;;;;5012046;28;20190;-62
2021/08/01 10:09:51;;;;;;;4.50;4.10;;;18.30;99.90;;;;;;5045101;23;20488;-61
2021/08/01 10:12:17;;;;;;;4.87;4.47;;;18.40;99.90;;;;;;5031387;28;20949;-61
2021/08/01 10:14:43;;;;;;;5.03;4.70;;;18.70;99.90;;;;;;5031464;28;20162;-61
2021/08/01 10:17:08;;;;;;;4.53;4.17;;;19.00;99.90;;;;;;5031059;28;20170;-64
2021/08/01 10:19:35;;;;;;;4.77;4.37;;;19.20;99.90;;;;;;5018980;28;20195;-63
2021/08/01 10:22:03;;;;;;;4.50;4.20;;;19.50;99.90;;;;;;5011813;28;20182;-63
2021/08/01 10:24:43;;;;;;;4.40;4.00;;;19.30;99.90;;;;;;5011739;28;20418;-63
2021/08/01 10:27:11;;;;;;;4.40;4.00;;;19.50;99.90;;;;;;5010393;28;20419;-62
2021/08/01 10:29:46;;;;;;;4.07;3.77;;;19.60;99.90;;;;;;5011369;28;20514;-63
2021/08/01 10:32:13;;;;;;;5.33;4.83;;;19.90;99.90;;;;;;5011753;28;20413;-62
2021/08/01 10:34:49;;;;;;;4.97;4.50;;;19.90;99.90;;;;;;5011649;28;20425;-63
2021/08/01 10:37:21;;;;;;;4.20;3.90;;;20.30;99.90;;;;;;5011659;28;20413;-63
2021/08/01 10:39:48;;;;;;;4.23;3.93;;;20.20;99.90;;;;;;5011249;28;21033;-63
2021/08/01 10:42:16;;;;;;;3.63;3.30;;;20.40;99.90;;;;;;5013778;28;20430;-63
2021/08/01 10:44:42;;;;;;;3.67;3.47;;;20.40;99.90;;;;;;5015253;28;20429;-63
2021/08/01 10:47:09;;;;;;;4.43;4.03;;;20.50;99.90;;;;;;5015223;28;20998;-63
2021/08/01 10:49:42;;;;;;;4.40;4.00;;;20.60;99.90;;;;;;5014700;28;20226;-64
2021/08/01 10:52:10;;;;;;;5.00;4.50;;;21.10;99.90;;;;;;5015018;28;20448;-63
2021/08/01 10:54:36;;;;;;;5.30;4.60;;;21.50;99.90;;;;;;5015025;28;20825;-63
2021/08/01 10:57:13;;;;;;;4.80;4.00;;;21.70;99.90;;;;;;5014964;28;20924;-63
2021/08/01 10:59:44;;;;;;;5.20;4.67;;;22.00;99.90;;;;;;5014593;28;20538;-63
2021/08/01 11:02:14;;;;;;;5.10;4.60;;;22.10;99.90;;;;;;5014911;28;20453;-63
2021/08/01 11:04:40;;;;;;;5.70;5.20;;;21.80;99.90;;;;;;5014641;28;20425;-63
2021/08/01 11:07:06;;;;;;;6.03;5.43;;;21.70;99.90;;;;;;5014838;28;20414;-63
2021/08/01 11:09:32;;;;;;;6.00;5.50;;;21.10;99.90;;;;;;5014303;28;20552;-63
2021/08/01 11:12:19;;;;;;;6.27;5.77;;;20.80;99.90;;;;;;5014721;28;20746;-64
2021/08/01 11:14:48;;;;;;;5.30;4.80;;;21.00;99.90;;;;;;5014622;28;20198;-63
2021/08/01 11:17:14;;;;;;;5.50;5.10;;;21.30;99.90;;;;;;5014322;28;20418;-63
2021/08/01 11:19:39;;;;;;;5.80;5.40;;;21.40;99.90;;;;;;5012971;28;20445;-63
2021/08/01 11:22:05;;;;;;;7.90;6.50;;;21.50;99.90;;;;;;5014276;28;20425;-64
2021/08/01 11:24:31;;;;;;;5.30;4.93;;;21.90;99.90;;;;;;5014062;28;20175;-64
2021/08/01 11:27:08;;;;;;;5.80;5.30;;;22.20;99.90;;;;;;5014110;28;20182;-64
2021/08/01 11:29:59;;;;;;;6.20;5.70;;;22.30;99.90;;;;;;5011640;28;20238;-64
2021/08/01 11:32:24;;;;;;;6.00;5.50;;;22.00;99.90;;;;;;5014367;28;20479;-64
2021/08/01 11:35:16;;;;;;;6.73;6.10;;;22.20;99.90;;;;;;5014407;28;20430;-64
2021/08/01 11:37:42;;;;;;;7.43;6.83;;;22.50;99.90;;;;;;5014080;28;20215;-64
2021/08/01 11:40:08;;;;;;;5.67;5.00;;;22.40;99.90;;;;;;5013405;28;20947;-62
2021/08/01 11:42:34;;;;;;;6.77;6.30;;;22.30;99.90;;;;;;5014092;28;20167;-62
2021/08/01 11:45:01;;;;;;;6.57;5.90;;;22.00;99.90;;;;;;5014075;28;20453;-62
2021/08/01 11:47:28;;;;;;;6.83;6.10;;;22.00;99.90;;;;;;5014071;28;20179;-62
2021/08/01 11:49:54;;;;;;;7.53;6.93;;;21.90;99.90;;;;;;5013613;28;20442;-62
2021/08/01 11:52:44;;;;;;;5.80;5.30;;;21.70;99.90;;;;;;5013477;28;20418;-62
2021/08/01 11:55:18;;;;;;;6.03;5.60;;;21.60;99.90;;;;;;5013876;28;20483;-64
2021/08/01 11:57:50;;;;;;;5.70;5.30;;;21.60;99.90;;;;;;5013798;28;20449;-62
2021/08/01 12:00:22;;;;;;;5.67;5.17;;;21.70;99.90;;;;;;5013544;28;20528;-61
2021/08/01 12:02:53;;;;;;;6.30;5.70;;;21.40;99.90;;;;;;5013850;28;20893;-61
2021/08/01 12:05:19;;;;;;;6.00;5.50;;;21.20;99.90;;;;;;5013595;28;20707;-62
2021/08/01 12:07:48;;;;;;;6.50;5.93;;;21.00;99.90;;;;;;5013637;28;20445;-63
2021/08/01 12:10:15;;;;;;;7.07;6.53;;;20.90;99.90;;;;;;5013257;28;20221;-62
2021/08/01 12:12:40;;;;;;;6.03;5.53;;;20.60;99.90;;;;;;5013553;28;20844;-62
2021/08/01 12:15:06;;;;;;;7.67;6.90;;;20.20;99.90;;;;;;5013593;28;20458;-62
2021/08/01 12:17:35;;;;;;;6.13;5.60;;;19.90;99.90;;;;;;5013305;28;20202;-62
2021/08/01 12:20:01;;;;;;;7.33;6.60;;;19.70;99.90;;;;;;5013343;28;20186;-62
2021/08/01 12:22:27;;;;;;;5.90;5.30;;;19.70;99.90;;;;;;5013401;28;20524;-62
2021/08/01 12:24:57;;;;;;;5.37;4.87;;;19.90;99.90;;;;;;5013494;28;20186;-65
2021/08/01 12:27:23;;;;;;;5.77;5.27;;;20.00;99.90;;;;;;5013464;28;20163;-65
2021/08/01 12:29:57;;;;;;;8.40;4.60;;;20.30;99.90;;;;;;5012939;28;20429;-64
2021/08/01 12:32:41;;;;;;;5.20;4.80;;;20.70;99.90;;;;;;5010298;28;20418;-65
2021/08/01 12:35:15;;;;;;;5.47;5.17;;;21.00;99.90;;;;;;5007437;28;20830;-64
2021/08/01 12:38:08;;;;;;;5.07;4.50;;;21.40;99.90;;;;;;5009576;28;20462;-64
2021/08/01 12:40:36;;;;;;;5.87;4.73;;;21.70;99.90;;;;;;5009252;28;21017;-64
2021/08/01 12:43:06;;;;;;;5.50;5.20;;;22.80;99.90;;;;;;5009772;28;20492;-62
2021/08/01 12:45:41;;;;;;;4.83;4.43;;;24.30;99.90;;;;;;5009658;28;20524;-62
2021/08/01 12:48:09;;;;;;;5.20;4.13;;;26.00;99.90;;;;;;5009758;28;20531;-63
2021/08/01 12:50:37;;;;;;;7.03;4.63;;;28.10;99.90;;;;;;5009311;28;20843;-62
2021/08/01 12:53:03;;;;;;;4.20;3.90;;;29.60;99.90;;;;;;5009729;28;21087;-63